Time;durP1;ratioP1;P1;durP2;ratioP2;P2;SDS_P1;SDS_P2;PMS_P1;PMS_P2;Temp;Humidity;BMP_temperature;BMP_pressure;BME280_temperature;BME280_humidity;BME280_pressure;Samples;Min_cycle;Max_cycle;Signal;HPM_P1;HPM_P2
2022/07/24 00:02:05;;;;;;;6.40;5.80;;;;;;;35.54;30.87;98275.09;5065041;28;20052;-81
2022/07/24 00:04:31;;;;;;;6.13;5.47;;;;;;;35.60;30.69;98275.91;5067838;28;20033;-81
2022/07/24 00:06:57;;;;;;;8.93;5.97;;;;;;;35.57;30.56;98271.19;5065089;28;20037;-81
2022/07/24 00:09:23;;;;;;;8.43;6.90;;;;;;;35.19;31.26;98272.47;5067614;28;20108;-82
2022/07/24 00:11:49;;;;;;;7.15;6.45;;;;;;;34.95;31.79;98279.72;5068238;28;20032;-81
2022/07/24 00:14:16;;;;;;;10.32;6.03;;;;;;;35.08;31.46;98285.84;5059713;28;20045;-81
2022/07/24 00:16:42;;;;;;;8.05;6.75;;;;;;;34.89;31.83;98291.09;5065416;28;20029;-82
2022/07/24 00:19:08;;;;;;;7.47;5.85;;;;;;;34.58;32.08;98285.28;5066286;28;20079;-81
2022/07/24 00:21:34;;;;;;;7.03;6.35;;;;;;;34.48;32.35;98290.34;5067011;28;20093;-81
2022/07/24 00:24:01;;;;;;;8.55;7.28;;;;;;;34.39;32.53;98279.09;5061136;28;20033;-80
2022/07/24 00:26:27;;;;;;;9.50;6.43;;;;;;;34.72;32.28;98276.66;5062479;28;20074;-79
2022/07/24 00:28:53;;;;;;;6.05;5.50;;;;;;;35.19;31.31;98272.47;5062887;28;20028;-79
2022/07/24 00:31:19;;;;;;;7.07;5.25;;;;;;;35.58;30.49;98269.91;5068069;28;20037;-79
2022/07/24 00:33:48;;;;;;;6.28;5.32;;;;;;;35.93;29.87;98273.25;5050386;28;20032;-79
2022/07/24 00:36:15;;;;;;;7.65;5.90;;;;;;;35.95;29.71;98273.53;5066011;28;20420;-79
2022/07/24 00:38:41;;;;;;;7.18;5.72;;;;;;;35.64;30.15;98265.00;5064532;28;20503;-79
2022/07/24 00:41:08;;;;;;;5.45;4.95;;;;;;;35.72;30.14;98268.19;5065134;28;20033;-79
2022/07/24 00:43:54;;;;;;;5.65;4.93;;;;;;;35.97;29.63;98273.81;5066766;28;20034;-80
2022/07/24 00:46:21;;;;;;;6.30;4.43;;;;;;;36.20;29.01;98273.94;5067960;28;20409;-79
2022/07/24 00:48:47;;;;;;;9.23;5.38;;;;;;;36.31;29.03;98273.97;5068030;28;20135;-79
2022/07/24 00:51:14;;;;;;;6.13;5.53;;;;;;;36.08;29.17;98276.72;5067867;28;20086;-79
2022/07/24 00:53:40;;;;;;;6.60;5.50;;;;;;;35.72;30.10;98265.31;5067115;28;20027;-79
2022/07/24 00:56:06;;;;;;;20.35;6.25;;;;;;;35.32;30.56;98274.88;5069084;28;20040;-79
2022/07/24 00:58:32;;;;;;;6.13;5.53;;;;;;;35.31;30.79;98279.03;5053608;28;20072;-79
2022/07/24 01:00:58;;;;;;;5.72;5.10;;;;;;;35.35;30.95;98271.00;5050888;28;20065;-79
2022/07/24 01:03:24;;;;;;;4.40;4.05;;;;;;;35.51;30.29;98278.16;5069644;28;20407;-79
2022/07/24 01:05:51;;;;;;;6.72;5.38;;;;;;;35.75;29.92;98272.88;5066761;28;20034;-79
2022/07/24 01:08:17;;;;;;;5.63;5.07;;;;;;;35.92;29.62;98273.75;5067326;28;20036;-79
2022/07/24 01:10:44;;;;;;;7.43;5.45;;;;;;;35.77;30.10;98261.72;5067312;28;20099;-79
2022/07/24 01:13:11;;;;;;;6.88;5.32;;;;;;;35.76;30.00;98274.44;5069173;28;20094;-79
2022/07/24 01:15:37;;;;;;;7.68;5.28;;;;;;;35.82;29.86;98260.97;5068929;28;20031;-79
2022/07/24 01:18:03;;;;;;;5.82;5.32;;;;;;;35.83;29.85;98260.47;5067197;28;20052;-79
2022/07/24 01:20:29;;;;;;;7.60;6.82;;;;;;;35.38;30.45;98255.72;5065495;28;20511;-79
2022/07/24 01:22:55;;;;;;;7.07;5.70;;;;;;;35.35;30.51;98248.97;5066260;28;20108;-79
2022/07/24 01:25:21;;;;;;;9.57;7.43;;;;;;;34.95;31.20;98257.66;5069189;28;20104;-79
2022/07/24 01:27:48;;;;;;;8.63;6.90;;;;;;;34.95;31.26;98251.97;5063448;28;20404;-79
2022/07/24 01:30:14;;;;;;;6.47;5.72;;;;;;;34.72;31.57;98258.75;5062465;28;20093;-79
2022/07/24 01:32:40;;;;;;;7.10;6.40;;;;;;;34.57;31.92;98258.03;5061564;28;20040;-79
2022/07/24 01:35:06;;;;;;;10.57;8.75;;;;;;;34.37;32.49;98260.91;5064599;28;20036;-79
2022/07/24 01:37:32;;;;;;;13.10;10.95;;;;;;;34.01;33.31;98265.88;5055475;28;20218;-79
2022/07/24 01:39:58;;;;;;;11.70;10.38;;;;;;;33.79;33.71;98264.81;5057242;28;20044;-80
2022/07/24 01:42:25;;;;;;;12.02;9.40;;;;;;;33.76;33.72;98265.78;5063430;28;20561;-79
2022/07/24 01:44:51;;;;;;;10.75;9.68;;;;;;;33.95;33.65;98267.88;5060477;28;20129;-79
2022/07/24 01:47:17;;;;;;;11.77;10.50;;;;;;;33.83;33.80;98265.38;5059271;28;20036;-79
2022/07/24 01:49:43;;;;;;;14.65;10.30;;;;;;;33.66;33.83;98270.03;5063912;28;20032;-79
2022/07/24 01:52:10;;;;;;;14.93;12.05;;;;;;;33.85;33.89;98274.19;5069266;28;20479;-79
2022/07/24 01:54:36;;;;;;;12.70;11.38;;;;;;;33.84;33.65;98276.25;5046119;28;20127;-79
2022/07/24 01:57:02;;;;;;;13.07;10.77;;;;;;;33.99;33.44;98273.34;5061205;28;20029;-79
2022/07/24 01:59:28;;;;;;;14.57;10.95;;;;;;;34.48;33.05;98276.06;5059943;28;20067;-78
2022/07/24 02:01:54;;;;;;;12.20;10.35;;;;;;;34.86;31.96;98274.97;5063947;28;20037;-78
2022/07/24 02:04:20;;;;;;;10.05;8.93;;;;;;;34.41;32.72;98281.44;5064779;28;20392;-79
2022/07/24 02:06:46;;;;;;;10.55;9.45;;;;;;;34.23;33.20;98279.66;5076874;28;20076;-79
2022/07/24 02:09:12;;;;;;;16.17;9.52;;;;;;;34.32;32.82;98273.03;5061048;28;20438;-79
2022/07/24 02:11:38;;;;;;;11.80;10.55;;;;;;;34.50;32.94;98281.28;5067274;28;20408;-79
2022/07/24 02:14:05;;;;;;;10.43;9.35;;;;;;;33.47;34.59;98283.69;5063180;28;20055;-79
2022/07/24 02:16:31;;;;;;;15.32;12.93;;;;;;;33.92;33.89;98280.25;5066360;28;20476;-79
2022/07/24 02:18:57;;;;;;;13.30;11.85;;;;;;;33.48;34.32;98278.78;5059918;28;20049;-79
2022/07/24 02:21:23;;;;;;;19.90;17.00;;;;;;;33.53;34.55;98276.06;5047520;28;20128;-79
2022/07/24 02:23:49;;;;;;;14.38;11.60;;;;;;;33.03;35.28;98280.91;5064423;28;20496;-79
2022/07/24 02:26:15;;;;;;;19.38;14.25;;;;;;;33.45;34.46;98283.41;5065320;28;20052;-79
2022/07/24 02:28:41;;;;;;;18.85;15.93;;;;;;;33.19;35.22;98285.31;5059109;28;20029;-79
2022/07/24 02:31:07;;;;;;;18.58;15.90;;;;;;;33.74;33.84;98288.28;5062298;28;20408;-79
2022/07/24 02:33:34;;;;;;;14.73;13.23;;;;;;;33.54;34.08;98299.63;5062300;28;20037;-79
2022/07/24 02:36:00;;;;;;;14.02;12.48;;;;;;;32.72;35.48;98301.25;5045593;28;20556;-80
2022/07/24 02:38:26;;;;;;;20.20;14.85;;;;;;;32.93;35.56;98307.84;5063647;28;20028;-79
2022/07/24 02:40:52;;;;;;;22.83;17.52;;;;;;;33.55;34.31;98301.19;5047751;28;20020;-79
2022/07/24 02:43:18;;;;;;;22.75;18.17;;;;;;;33.36;34.91;98312.00;5065779;28;20032;-79
2022/07/24 02:45:44;;;;;;;23.73;19.40;;;;;;;33.33;35.01;98310.91;5051001;28;20397;-79
2022/07/24 02:48:10;;;;;;;25.83;19.90;;;;;;;33.46;34.69;98312.66;5067763;28;20040;-79
2022/07/24 02:50:38;;;;;;;17.42;15.27;;;;;;;33.61;34.04;98311.38;5068883;28;20721;-79
2022/07/24 02:53:05;;;;;;;18.95;15.90;;;;;;;33.69;33.94;98314.63;5069860;28;20033;-79
2022/07/24 02:55:31;;;;;;;18.35;14.73;;;;;;;33.57;34.14;98319.34;5063729;28;20028;-80
2022/07/24 02:57:57;;;;;;;17.08;14.55;;;;;;;33.24;34.38;98327.31;5061352;28;20166;-79
2022/07/24 03:00:23;;;;;;;17.70;14.15;;;;;;;32.63;35.57;98326.13;5060192;28;20036;-80
2022/07/24 03:02:50;;;;;;;23.67;19.30;;;;;;;33.09;34.40;98333.03;5076512;28;20389;-79
2022/07/24 03:05:16;;;;;;;16.75;14.73;;;;;;;33.31;33.90;98341.13;5056160;28;20622;-79
2022/07/24 03:07:42;;;;;;;18.10;15.70;;;;;;;33.31;33.60;98336.25;5058785;28;20107;-80
2022/07/24 03:10:11;;;;;;;21.88;15.50;;;;;;;33.77;32.94;98336.50;5064276;28;20046;-79
2022/07/24 03:12:37;;;;;;;17.63;13.35;;;;;;;34.07;32.32;98345.78;5060585;28;20036;-79
2022/07/24 03:15:03;;;;;;;14.57;12.93;;;;;;;34.22;32.19;98343.66;5058222;28;20439;-79
2022/07/24 03:17:29;;;;;;;17.08;13.57;;;;;;;33.92;32.27;98342.16;5059653;28;20053;-79
2022/07/24 03:19:55;;;;;;;15.77;13.18;;;;;;;33.93;32.41;98350.22;5057200;28;20075;-79
2022/07/24 03:22:22;;;;;;;14.80;11.98;;;;;;;34.00;32.35;98361.19;5062544;28;20058;-79
2022/07/24 03:24:48;;;;;;;14.93;12.70;;;;;;;34.08;32.23;98364.44;5062370;28;20495;-79
2022/07/24 03:27:14;;;;;;;11.90;10.70;;;;;;;34.10;32.20;98359.03;5062804;28;20116;-79
2022/07/24 03:29:40;;;;;;;13.85;12.07;;;;;;;34.12;32.11;98373.59;5064861;28;20032;-80
2022/07/24 03:32:06;;;;;;;13.60;11.20;;;;;;;34.11;32.21;98369.16;5061133;28;20032;-79
2022/07/24 03:34:32;;;;;;;12.18;10.85;;;;;;;34.31;31.98;98374.88;5060206;28;20033;-79
2022/07/24 03:36:58;;;;;;;11.20;9.98;;;;;;;34.04;31.97;98378.13;5066211;28;20515;-79
2022/07/24 03:39:24;;;;;;;12.50;10.90;;;;;;;34.11;32.02;98377.72;5065810;28;20041;-79
2022/07/24 03:41:50;;;;;;;11.30;9.73;;;;;;;33.95;32.08;98373.31;5062904;28;20520;-79
2022/07/24 03:44:16;;;;;;;10.63;9.52;;;;;;;33.84;31.97;98380.91;5066236;28;20504;-79
2022/07/24 03:46:43;;;;;;;12.15;9.88;;;;;;;33.48;32.64;98378.44;5066808;28;20021;-79
2022/07/24 03:49:09;;;;;;;10.32;9.32;;;;;;;33.57;32.15;98382.00;5063517;28;20045;-79
2022/07/24 03:51:35;;;;;;;9.25;8.25;;;;;;;34.07;31.39;98386.44;5067524;28;20511;-79
2022/07/24 03:54:02;;;;;;;9.20;8.23;;;;;;;34.49;31.04;98388.88;5062154;28;20033;-79
2022/07/24 03:56:29;;;;;;;10.50;7.93;;;;;;;34.32;30.87;98395.63;5067180;28;20028;-79
2022/07/24 03:58:55;;;;;;;11.20;8.02;;;;;;;34.03;30.94;98394.44;5066831;28;20115;-79
2022/07/24 04:01:22;;;;;;;10.45;9.02;;;;;;;34.05;31.10;98391.09;5065124;28;20036;-79
2022/07/24 04:03:48;;;;;;;12.10;7.75;;;;;;;33.90;31.45;98393.94;5065673;28;20115;-79
2022/07/24 04:06:15;;;;;;;8.18;7.38;;;;;;;33.83;31.42;98396.41;5069541;28;20417;-79
2022/07/24 04:08:41;;;;;;;7.78;6.97;;;;;;;34.08;31.38;98398.66;5071301;28;20032;-79
2022/07/24 04:11:10;;;;;;;11.15;7.68;;;;;;;34.34;30.98;98393.84;5066333;28;20029;-79
2022/07/24 04:13:36;;;;;;;8.35;7.53;;;;;;;34.75;30.53;98406.09;5069707;28;20100;-79
2022/07/24 04:16:02;;;;;;;8.27;7.32;;;;;;;35.32;29.85;98395.59;5063053;28;20037;-79
2022/07/24 04:18:28;;;;;;;7.43;6.72;;;;;;;35.85;29.65;98409.34;5062435;28;20088;-79
2022/07/24 04:20:54;;;;;;;7.15;6.45;;;;;;;36.18;29.24;98417.41;5073684;28;20056;-79
2022/07/24 04:23:21;;;;;;;8.40;7.50;;;;;;;35.94;28.94;98417.72;5068819;28;20025;-79
2022/07/24 04:25:47;;;;;;;9.85;7.07;;;;;;;35.92;29.35;98414.59;5074455;28;20032;-79
2022/07/24 04:28:13;;;;;;;7.70;6.78;;;;;;;36.00;29.11;98421.47;5075062;28;20075;-79
2022/07/24 04:30:39;;;;;;;8.93;7.03;;;;;;;36.19;29.11;98426.78;5074971;28;20028;-79
2022/07/24 04:33:05;;;;;;;8.48;7.03;;;;;;;36.17;29.44;98435.09;5072267;28;20027;-79
2022/07/24 04:35:31;;;;;;;9.32;7.45;;;;;;;35.71;29.27;98435.97;5072813;28;20024;-79
2022/07/24 04:37:57;;;;;;;10.95;8.18;;;;;;;35.36;29.82;98438.19;5065529;28;20047;-80
2022/07/24 04:40:24;;;;;;;8.43;7.63;;;;;;;35.12;29.52;98440.56;5068064;28;20064;-79
2022/07/24 04:42:50;;;;;;;7.03;6.32;;;;;;;34.75;29.36;98443.19;5073933;28;20580;-79
2022/07/24 04:45:16;;;;;;;6.82;6.13;;;;;;;34.48;29.83;98446.41;5069814;28;20032;-80
2022/07/24 04:47:42;;;;;;;10.05;6.10;;;;;;;34.43;29.71;98449.94;5063759;28;20036;-80
2022/07/24 04:50:08;;;;;;;10.98;7.95;;;;;;;34.11;29.65;98443.25;5064982;28;20051;-79
2022/07/24 04:52:34;;;;;;;8.18;6.65;;;;;;;34.25;30.53;98451.00;5065221;28;20112;-80
2022/07/24 04:55:00;;;;;;;7.03;5.38;;;;;;;33.83;30.42;98453.41;5061430;28;20041;-80
2022/07/24 04:57:26;;;;;;;7.22;6.22;;;;;;;34.03;30.21;98448.56;5061161;28;20070;-80
2022/07/24 04:59:52;;;;;;;7.43;6.50;;;;;;;33.97;29.97;98446.91;5069660;28;20044;-80
2022/07/24 05:02:19;;;;;;;7.43;5.65;;;;;;;33.96;29.70;98439.63;5070473;28;20082;-81
2022/07/24 05:04:45;;;;;;;6.32;5.72;;;;;;;34.38;29.98;98451.44;5066077;28;20112;-78
2022/07/24 05:07:11;;;;;;;7.28;5.95;;;;;;;34.60;30.47;98448.94;5067342;28;20039;-81
2022/07/24 05:09:37;;;;;;;6.18;5.57;;;;;;;34.73;29.70;98449.38;5067270;28;20025;-80
2022/07/24 05:12:04;;;;;;;5.85;5.35;;;;;;;34.80;29.48;98450.25;5066419;28;20606;-81
2022/07/24 05:14:30;;;;;;;10.07;7.38;;;;;;;34.52;29.26;98444.13;5069073;28;20036;-81
2022/07/24 05:16:56;;;;;;;6.75;6.05;;;;;;;35.13;29.76;98450.66;5064707;28;20111;-81
2022/07/24 05:19:22;;;;;;;7.28;6.57;;;;;;;35.05;29.16;98450.34;5068362;28;20043;-81
2022/07/24 05:21:48;;;;;;;6.32;5.72;;;;;;;34.63;30.10;98452.88;5067334;28;20028;-81
2022/07/24 05:24:14;;;;;;;7.13;6.43;;;;;;;34.52;30.76;98459.19;5066234;28;20508;-81
2022/07/24 05:26:40;;;;;;;6.95;6.15;;;;;;;34.94;29.43;98452.25;5069371;28;20500;-82
2022/07/24 05:29:06;;;;;;;6.63;6.03;;;;;;;34.14;28.78;98450.03;5066561;28;20035;-83
2022/07/24 05:31:33;;;;;;;6.38;5.57;;;;;;;34.31;29.19;98460.41;5067632;28;20033;-82
2022/07/24 05:34:02;;;;;;;6.65;5.38;;;;;;;34.50;28.81;98463.78;5063308;28;20040;-82
2022/07/24 05:36:28;;;;;;;5.45;4.95;;;;;;;34.91;29.29;98462.59;5060510;28;20107;-82
2022/07/24 05:38:55;;;;;;;5.35;4.78;;;;;;;35.05;28.55;98460.97;5067656;28;20033;-82
2022/07/24 05:41:21;;;;;;;5.38;4.10;;;;;;;35.35;29.46;98466.00;5067313;28;20037;-82
2022/07/24 05:43:47;;;;;;;6.18;5.57;;;;;;;35.15;28.31;98466.00;5046533;28;20029;-81
2022/07/24 05:46:13;;;;;;;4.68;4.30;;;;;;;35.23;28.36;98463.50;5067099;28;20025;-82
2022/07/24 05:48:39;;;;;;;5.07;4.55;;;;;;;35.56;27.64;98466.75;5064136;28;20038;-81
2022/07/24 05:51:05;;;;;;;4.38;3.92;;;;;;;35.93;27.54;98470.50;5064977;28;20060;-81
2022/07/24 05:53:31;;;;;;;4.25;3.85;;;;;;;35.91;27.20;98463.72;5066047;28;20052;-82
2022/07/24 05:55:57;;;;;;;4.65;4.25;;;;;;;35.78;26.64;98466.19;5065310;28;20032;-83
2022/07/24 05:58:24;;;;;;;4.00;3.63;;;;;;;35.41;27.37;98463.19;5067183;28;20473;-81
2022/07/24 06:00:50;;;;;;;4.93;4.20;;;;;;;35.89;26.77;98472.00;5051177;28;20039;-82
2022/07/24 06:03:16;;;;;;;5.65;3.92;;;;;;;35.79;26.55;98459.97;5067690;28;20442;-82
2022/07/24 06:05:42;;;;;;;4.38;3.80;;;;;;;36.10;25.92;98469.88;5066965;28;20082;-82
2022/07/24 06:08:08;;;;;;;3.80;3.53;;;;;;;36.10;26.82;98464.94;5066662;28;20028;-82
2022/07/24 06:10:35;;;;;;;3.80;3.40;;;;;;;36.38;25.62;98474.50;5062336;28;20033;-81
2022/07/24 06:13:01;;;;;;;4.53;3.75;;;;;;;36.17;25.75;98466.53;5065744;28;20064;-81
2022/07/24 06:15:30;;;;;;;5.22;4.53;;;;;;;35.70;26.95;98468.72;5060582;28;20063;-80
2022/07/24 06:17:56;;;;;;;3.72;3.42;;;;;;;36.16;26.16;98474.34;5066069;28;20041;-79
2022/07/24 06:20:22;;;;;;;4.57;3.80;;;;;;;36.37;25.94;98477.84;5068422;28;20036;-79
2022/07/24 06:22:49;;;;;;;6.50;4.20;;;;;;;36.66;25.34;98483.28;5079676;28;20098;-79
2022/07/24 06:25:16;;;;;;;5.85;4.60;;;;;;;36.24;24.82;98477.53;5079227;28;20025;-79
2022/07/24 06:27:43;;;;;;;4.65;3.70;;;;;;;36.26;25.59;98477.78;5061357;28;20037;-79
2022/07/24 06:30:15;;;;;;;4.32;3.35;;;;;;;36.11;25.30;98485.75;5053931;28;20439;-79
2022/07/24 06:32:41;;;;;;;4.22;3.67;;;;;;;35.97;25.30;98481.69;5065543;28;20085;-79
2022/07/24 06:35:11;;;;;;;5.43;3.45;;;;;;;36.25;24.75;98481.94;5072492;28;20485;-80
2022/07/24 06:37:38;;;;;;;3.95;3.55;;;;;;;35.53;26.53;98478.41;5073361;28;20021;-80
2022/07/24 06:40:05;;;;;;;4.35;3.75;;;;;;;35.50;26.47;98485.91;5072965;28;20040;-80
2022/07/24 06:42:31;;;;;;;5.13;3.92;;;;;;;35.58;25.34;98489.88;5073273;28;20060;-80
2022/07/24 06:44:57;;;;;;;5.95;3.35;;;;;;;35.23;26.53;98489.22;5073664;28;20115;-79
2022/07/24 06:47:24;;;;;;;4.75;3.40;;;;;;;36.08;25.31;98478.16;5072112;28;20473;-80
2022/07/24 06:49:50;;;;;;;3.25;2.95;;;;;;;36.84;24.25;98494.31;5068814;28;20081;-79
2022/07/24 06:52:16;;;;;;;4.95;4.10;;;;;;;37.13;23.47;98493.19;5068862;28;20033;-80
2022/07/24 06:54:42;;;;;;;3.00;2.78;;;;;;;36.86;23.58;98493.78;5067428;28;20489;-81
2022/07/24 06:57:08;;;;;;;3.53;3.22;;;;;;;36.25;23.66;98488.44;5064485;28;20082;-80
2022/07/24 06:59:35;;;;;;;4.53;3.10;;;;;;;35.39;25.03;98492.25;5063201;28;20124;-79
2022/07/24 07:02:01;;;;;;;4.43;3.47;;;;;;;35.55;25.19;98488.03;5063033;28;20102;-79
2022/07/24 07:04:27;;;;;;;3.45;3.15;;;;;;;35.80;25.53;98495.81;5059236;28;20033;-80
2022/07/24 07:06:53;;;;;;;4.10;3.70;;;;;;;35.95;24.91;98489.97;5056304;28;20037;-78
2022/07/24 07:09:19;;;;;;;2.88;2.67;;;;;;;35.88;25.96;98487.56;5043090;28;20071;-78
2022/07/24 07:11:45;;;;;;;3.10;2.80;;;;;;;36.41;24.07;98492.72;5066887;28;20430;-78
2022/07/24 07:14:11;;;;;;;3.80;2.45;;;;;;;36.60;24.24;98494.69;5062622;28;20033;-80
2022/07/24 07:16:37;;;;;;;2.30;2.10;;;;;;;37.40;23.89;98492.53;5060876;28;20020;-79
2022/07/24 07:19:03;;;;;;;2.35;2.10;;;;;;;36.15;24.18;98492.78;5062621;28;20060;-78
2022/07/24 07:21:29;;;;;;;2.40;2.20;;;;;;;36.39;23.16;98498.94;5067655;28;20032;-79
2022/07/24 07:23:55;;;;;;;2.88;2.15;;;;;;;37.08;22.55;98491.88;5067788;28;20028;-79
2022/07/24 07:26:21;;;;;;;2.90;2.40;;;;;;;37.13;23.12;98488.22;5069634;28;20033;-79
2022/07/24 07:28:47;;;;;;;2.30;2.10;;;;;;;37.29;22.22;98487.53;5066332;28;20107;-79
2022/07/24 07:31:14;;;;;;;3.78;2.03;;;;;;;35.41;24.52;98498.25;5065667;28;20038;-80
2022/07/24 07:33:40;;;;;;;2.35;1.77;;;;;;;35.61;23.37;98500.31;5069874;28;20028;-79
2022/07/24 07:36:08;;;;;;;2.65;1.70;;;;;;;35.02;23.89;98499.84;5065566;28;20162;-79
2022/07/24 07:38:37;;;;;;;2.00;1.50;;;;;;;35.01;22.84;98506.81;5068296;28;20025;-77
2022/07/24 07:41:03;;;;;;;3.15;1.60;;;;;;;34.65;24.67;98513.84;5046027;28;20055;-78
2022/07/24 07:43:29;;;;;;;1.60;1.50;;;;;;;35.47;22.61;98506.09;5067514;28;20036;-79
2022/07/24 07:45:56;;;;;;;1.70;1.60;;;;;;;34.71;24.38;98511.84;5068465;28;20033;-78
2022/07/24 07:48:22;;;;;;;1.75;1.50;;;;;;;34.70;24.64;98506.66;5063177;28;20496;-80
2022/07/24 07:50:48;;;;;;;2.08;1.60;;;;;;;34.19;25.62;98512.84;5064411;28;20116;-80
2022/07/24 07:53:14;;;;;;;1.88;1.45;;;;;;;35.31;24.37;98516.06;5064676;28;20124;-80
2022/07/24 07:55:42;;;;;;;1.55;1.45;;;;;;;35.04;23.34;98516.47;5069605;28;20090;-81
2022/07/24 07:58:09;;;;;;;1.35;1.25;;;;;;;35.23;22.38;98515.69;5066618;28;20032;-79
2022/07/24 08:00:36;;;;;;;1.52;1.33;;;;;;;35.03;24.48;98509.22;5069312;28;20106;-79
2022/07/24 08:03:02;;;;;;;2.58;1.42;;;;;;;34.98;22.74;98513.53;5065520;28;20107;-79
2022/07/24 08:05:29;;;;;;;2.17;1.70;;;;;;;34.92;22.20;98520.44;5064889;28;20052;-80
2022/07/24 08:07:55;;;;;;;2.95;1.63;;;;;;;34.63;22.99;98519.28;5063509;28;20043;-80
2022/07/24 08:10:22;;;;;;;2.22;1.60;;;;;;;35.02;23.33;98524.75;5065454;28;20366;-80
2022/07/24 08:12:48;;;;;;;2.45;1.65;;;;;;;34.15;24.06;98520.81;5061502;28;20032;-79
2022/07/24 08:15:14;;;;;;;3.17;1.58;;;;;;;33.77;24.95;98523.75;5066859;28;20044;-80
2022/07/24 08:17:40;;;;;;;2.78;1.45;;;;;;;34.17;24.75;98521.09;5064567;28;20045;-80
2022/07/24 08:20:07;;;;;;;2.90;1.60;;;;;;;34.86;22.86;98528.16;5059762;28;20171;-79
2022/07/24 08:22:38;;;;;;;5.00;1.90;;;;;;;34.69;23.00;98525.03;5064061;28;20047;-80
2022/07/24 08:25:04;;;;;;;2.33;1.73;;;;;;;34.22;22.58;98525.31;5056520;28;20045;-80
2022/07/24 08:27:35;;;;;;;2.13;1.33;;;;;;;33.78;23.47;98519.59;5068020;28;20033;-80
2022/07/24 08:30:01;;;;;;;1.58;1.42;;;;;;;34.03;23.17;98528.38;5064581;28;20032;-80
2022/07/24 08:32:27;;;;;;;1.30;1.20;;;;;;;34.23;22.93;98518.34;5055777;28;20040;-80
2022/07/24 08:34:53;;;;;;;2.80;1.40;;;;;;;32.01;25.50;98528.59;5060320;28;20493;-81
2022/07/24 08:37:20;;;;;;;2.25;1.70;;;;;;;33.35;22.99;98527.56;5055774;28;20114;-80
2022/07/24 08:39:47;;;;;;;1.55;1.45;;;;;;;33.19;25.26;98530.06;5051813;28;20163;-80
2022/07/24 08:42:13;;;;;;;1.27;1.15;;;;;;;34.70;22.93;98523.78;5075190;28;20107;-81
2022/07/24 08:44:39;;;;;;;2.00;1.70;;;;;;;35.33;21.14;98530.63;5065104;28;20494;-81
2022/07/24 08:47:08;;;;;;;1.83;1.67;;;;;;;34.59;22.22;98524.38;5054335;28;20044;-80
2022/07/24 08:49:37;;;;;;;3.85;1.90;;;;;;;34.05;24.23;98520.13;5068078;28;20430;-79
2022/07/24 08:52:08;;;;;;;1.90;1.23;;;;;;;35.89;21.31;98509.16;5072594;28;20535;-80
2022/07/24 08:54:35;;;;;;;3.70;1.48;;;;;;;37.02;19.73;98522.53;5074575;28;20031;-79
2022/07/24 08:57:04;;;;;;;2.75;1.48;;;;;;;36.50;20.47;98529.75;5073837;28;20032;-78
2022/07/24 08:59:31;;;;;;;1.77;1.67;;;;;;;36.02;21.10;98527.50;5070962;28;20047;-79
2022/07/24 09:01:57;;;;;;;2.88;1.70;;;;;;;36.16;20.06;98530.72;5074262;28;20750;-80
2022/07/24 09:04:36;;;;;;;1.40;1.10;;;;;;;36.51;20.53;98537.03;5072488;28;20040;-79
2022/07/24 09:07:14;;;;;;;4.20;1.50;;;;;;;36.11;21.03;98537.97;5075250;28;20085;-79
2022/07/24 09:09:42;;;;;;;1.60;1.30;;;;;;;36.68;20.16;98537.94;5068363;28;20043;-81
2022/07/24 09:12:13;;;;;;;1.73;1.20;;;;;;;36.97;20.11;98536.84;5052180;28;20499;-80
2022/07/24 09:14:41;;;;;;;2.45;1.40;;;;;;;36.00;21.73;98521.50;5062901;28;20032;-79
2022/07/24 09:17:16;;;;;;;2.92;1.90;;;;;;;35.27;22.58;98533.38;5061710;28;20084;-79
2022/07/24 09:20:01;;;;;;;3.30;2.08;;;;;;;36.04;21.94;98536.34;5062166;28;20145;-79
2022/07/24 09:22:39;;;;;;;3.60;2.25;;;;;;;36.41;21.24;98529.91;5066877;28;20024;-80
2022/07/24 09:25:20;;;;;;;2.70;1.77;;;;;;;36.52;21.05;98525.09;5066879;28;20075;-80
2022/07/24 09:27:49;;;;;;;2.10;1.92;;;;;;;36.06;20.79;98521.53;5047454;28;20380;-79
2022/07/24 09:30:36;;;;;;;3.33;1.70;;;;;;;36.40;20.96;98529.13;5070239;28;20072;-79
2022/07/24 09:33:04;;;;;;;2.40;1.75;;;;;;;36.51;20.86;98529.22;5045884;28;20036;-79
2022/07/24 09:35:33;;;;;;;2.65;2.05;;;;;;;35.16;22.82;98538.19;5064307;28;20029;-79
2022/07/24 09:38:01;;;;;;;3.22;2.10;;;;;;;35.84;21.72;98532.75;5067017;28;20070;-79
2022/07/24 09:40:33;;;;;;;2.13;1.88;;;;;;;36.48;21.47;98535.22;5081683;28;20041;-80
2022/07/24 09:43:20;;;;;;;2.08;1.90;;;;;;;35.58;21.86;98535.59;5069350;28;20041;-80
2022/07/24 09:45:57;;;;;;;2.60;2.10;;;;;;;34.89;23.04;98530.00;5045267;28;20032;-78
2022/07/24 09:48:26;;;;;;;1.63;1.52;;;;;;;36.46;20.86;98532.84;5067479;28;20029;-80
2022/07/24 09:50:54;;;;;;;3.58;1.67;;;;;;;37.49;19.33;98538.13;5065754;28;20032;-80
2022/07/24 09:53:23;;;;;;;1.60;1.50;;;;;;;36.81;19.94;98541.13;5063380;28;20039;-80
2022/07/24 09:56:12;;;;;;;1.33;1.23;;;;;;;36.34;20.45;98536.09;5072545;28;20048;-79
2022/07/24 09:58:52;;;;;;;1.92;1.60;;;;;;;35.61;21.93;98528.09;5073366;28;20036;-79
2022/07/24 10:01:22;;;;;;;4.18;2.00;;;;;;;36.36;21.86;98522.06;5070682;28;20036;-79
2022/07/24 10:03:49;;;;;;;3.83;1.95;;;;;;;36.66;19.85;98531.94;5067499;28;20028;-80
2022/07/24 10:06:21;;;;;;;2.22;1.60;;;;;;;37.09;18.96;98538.44;5065835;28;20032;-79
2022/07/24 10:08:50;;;;;;;3.38;1.95;;;;;;;37.19;19.30;98540.59;5062740;28;20028;-78
2022/07/24 10:11:17;;;;;;;1.60;1.50;;;;;;;36.39;20.67;98539.00;5060003;28;20037;-78
2022/07/24 10:13:43;;;;;;;1.95;1.70;;;;;;;36.05;21.29;98532.22;5063476;28;20056;-78
2022/07/24 10:16:29;;;;;;;2.20;1.58;;;;;;;36.85;20.59;98530.25;5065163;28;20045;-79
2022/07/24 10:18:56;;;;;;;3.50;1.77;;;;;;;37.57;19.61;98527.75;5064900;28;20550;-79
2022/07/24 10:21:28;;;;;;;1.67;1.58;;;;;;;38.28;19.09;98529.19;5062531;28;20029;-78
2022/07/24 10:24:12;;;;;;;1.95;1.63;;;;;;;38.19;19.03;98523.69;5061984;28;20630;-78
2022/07/24 10:26:43;;;;;;;2.85;1.75;;;;;;;37.74;19.73;98519.94;5065574;28;20078;-78
2022/07/24 10:29:14;;;;;;;2.97;2.50;;;;;;;36.84;20.52;98519.28;5063094;28;20037;-79
2022/07/24 10:31:48;;;;;;;2.22;2.03;;;;;;;36.90;20.64;98511.53;5059720;28;21683;-78
2022/07/24 10:34:24;;;;;;;2.50;2.30;;;;;;;37.68;20.31;98515.50;5062965;28;20408;-79
2022/07/24 10:37:24;;;;;;;2.80;2.00;;;;;;;38.40;19.95;98515.63;5064762;28;20028;-79
2022/07/24 10:40:06;;;;;;;2.20;2.10;;;;;;;37.79;20.68;98515.53;5064601;28;20040;-78
2022/07/24 10:42:32;;;;;;;2.35;2.05;;;;;;;38.63;17.47;98515.06;5065584;28;20674;-78
2022/07/24 10:45:30;;;;;;;2.22;2.00;;;;;;;38.74;17.94;98504.91;5043421;28;20025;-78
2022/07/24 10:47:57;;;;;;;3.65;2.10;;;;;;;39.19;17.72;98498.50;5050137;28;20056;-79
2022/07/24 10:50:43;;;;;;;1.60;1.50;;;;;;;39.30;17.52;98491.94;5067303;28;20040;-79
2022/07/24 10:53:23;;;;;;;1.30;1.20;;;;;;;39.30;17.09;98495.56;5068921;28;20051;-79
2022/07/24 10:55:49;;;;;;;1.63;1.50;;;;;;;38.82;18.15;98498.09;5065281;28;20147;-78
2022/07/24 10:58:15;;;;;;;1.50;1.40;;;;;;;38.76;17.75;98505.94;5065495;28;20017;-78
2022/07/24 11:00:47;;;;;;;1.73;1.60;;;;;;;39.37;17.71;98503.63;5073687;28;20073;-79
2022/07/24 11:03:19;;;;;;;2.30;1.63;;;;;;;38.83;17.10;98496.00;5067403;28;20029;-78
2022/07/24 11:06:06;;;;;;;3.30;1.80;;;;;;;37.79;17.85;98501.19;5072975;28;20080;-78
2022/07/24 11:08:40;;;;;;;1.58;1.48;;;;;;;38.18;18.23;98487.72;5066620;28;20036;-79
2022/07/24 11:11:16;;;;;;;3.10;2.20;;;;;;;38.30;18.75;98497.88;5081834;28;20057;-79
2022/07/24 11:13:45;;;;;;;3.15;1.52;;;;;;;38.92;19.08;98489.97;5053952;28;20029;-78
2022/07/24 11:16:12;;;;;;;1.83;1.73;;;;;;;39.25;17.44;98484.13;5067874;28;20040;-78
2022/07/24 11:18:39;;;;;;;1.60;1.50;;;;;;;39.72;18.15;98484.94;5068529;28;20150;-77
2022/07/24 11:21:07;;;;;;;1.40;1.30;;;;;;;39.86;17.76;98489.53;5065985;28;20961;-78
2022/07/24 11:23:33;;;;;;;3.17;1.55;;;;;;;39.93;15.86;98483.19;5060041;28;20033;-79
2022/07/24 11:26:30;;;;;;;1.30;1.08;;;;;;;39.08;17.10;98480.50;5045098;28;20501;-78
2022/07/24 11:29:16;;;;;;;1.38;1.27;;;;;;;39.41;17.31;98471.75;5061179;28;20045;-78
2022/07/24 11:31:45;;;;;;;1.38;1.20;;;;;;;39.18;17.97;98473.97;5069423;28;20028;-78
2022/07/24 11:34:11;;;;;;;1.30;1.20;;;;;;;39.77;17.28;98470.50;5066433;28;20025;-78